Max Planck — ELZY8 — position and weather

sailwx.info

Track history (hours):
 
Tides and Currents Weather Stations Pressure Air Temp Water Temp Dewpoint Dewpoint Depression Visibility Wind Speed Wind Dir Waves Ship Positions

Max Planck

Last reported at 2016-May-19 23:33 UTC. Time now 2016-May-31 16:07 UTC.
Position N 30°58' E 122°40'.
Warning: this ship's position is 11 days out of date.

Length 99.9 m; beam 16.2 m; draft 6.8 m.

Type: Tanker. MMSI: 636017362.

Date/timePositionNaut miles runAvg speedWind from/ knotsBaromVisibWave heightAir tempDewpointWater temp
2016-May-19 23:33N 30°58' E 122°40'2310.2
2016-May-19 21:16N 31°02' E 122°14'1011.6
2016-May-19 20:26N 31°05' E 122°03'1314.5
2016-May-19 19:33N 31°11' E 121°50'1413.9
2016-May-19 18:33N 31°21' E 121°39'1010.4
2016-May-19 17:33N 31°27' E 121°28'1211.6
2016-May-19 16:34N 31°34' E 121°18'1111.2
2016-May-19 15:33N 31°42' E 121°08'1411.4
2016-May-19 14:20N 31°49' E 120°55'1213.6
2016-May-19 13:28N 32°00' E 120°49'1412.8
2016-May-19 12:24N 32°01' E 120°32'1010.9
2016-May-19 11:31N 31°59' E 120°21'1413.4
2016-May-19 10:29N 31°57' E 120°05'6 0.3
2016-May-18 12:27N 32°00' E 119°59'2 0.5
2016-May-18 08:28N 32°02' E 119°57'  
2016-May-15 10:06N 32°01' E 119°58'0 0.0
2016-May-15 09:24N 32°01' E 119°58'0 0.0
2016-May-15 03:19N 32°01' E 119°58'0 0.0
2016-May-14 15:22N 32°01' E 119°58'0 0.0
2016-May-13 07:21N 32°01' E 119°58'0 0.0
2016-May-13 02:18N 32°01' E 119°58'0 0.0
2016-May-13 00:24N 32°01' E 119°58'0 0.0
2016-May-12 21:29N 32°01' E 119°58'0 0.0
2016-May-12 18:30N 32°01' E 119°58'0 0.0
2016-May-12 10:24N 32°01' E 119°58'0 0.0
2016-May-12 09:22N 32°01' E 119°58'0 0.1
2016-May-12 08:06N 32°01' E 119°58'3 5.6
2016-May-12 07:33N 31°59' E 120°00'7 6.9
2016-May-12 06:30N 31°56' E 120°08'8 7.8
2016-May-12 05:30N 31°57' E 120°17'9 8.2
2016-May-12 04:24N 32°03' E 120°26'9 7.7
2016-May-12 03:15N 32°01' E 120°36'6 8.1
2016-May-12 02:31N 32°00' E 120°43'8 8.4
2016-May-12 01:31N 31°57' E 120°52'17 8.8
2016-May-11 23:33N 31°45' E 121°06'1110.9
2016-May-11 22:33N 31°38' E 121°16'6 5.3
2016-May-11 21:31N 31°34' E 121°20'0 0.0
2016-May-11 20:31N 31°34' E 121°20'0 0.0
2016-May-11 19:31N 31°34' E 121°20'0 0.0
2016-May-11 18:31N 31°34' E 121°20'0 0.1
2016-May-11 17:31N 31°33' E 121°20'0 0.1
2016-May-11 16:30N 31°33' E 121°20'0 0.1
2016-May-11 15:33N 31°33' E 121°20'0 0.1
2016-May-11 14:33N 31°33' E 121°20'0 0.1
2016-May-11 13:33N 31°33' E 121°20'0 0.1
2016-May-11 12:32N 31°34' E 121°20'0 0.0
2016-May-11 11:33N 31°34' E 121°20'0 0.2
2016-May-11 10:31N 31°34' E 121°20'0 0.0
2016-May-11 09:31N 31°34' E 121°20'6 6.0
2016-May-11 08:33N 31°30' E 121°25'9 8.5
2016-May-11 07:33N 31°24' E 121°33'10 9.9
2016-May-11 06:33N 31°19' E 121°43'1110.7
2016-May-11 05:33N 31°11' E 121°51'  
Track history (hours):
 
Tides and Currents Weather Stations Pressure Air Temp Water Temp Dewpoint Dewpoint Depression Visibility Wind Speed Wind Dir Waves Ship Positions

Max Planck

Last reported at 2016-May-19 23:33 UTC. Time now 2016-May-31 16:07 UTC.
Position N 30°58' E 122°40'.
Warning: this ship's position is 11 days out of date.

Length 99.9 m; beam 16.2 m; draft 6.8 m.

Type: Tanker. MMSI: 636017362.

Date/timePositionNaut miles runAvg speedWind from/ knotsBaromVisibWave heightAir tempDewpointWater temp
2016-May-19 23:33N 30°58' E 122°40'2310.2
2016-May-19 21:16N 31°02' E 122°14'1011.6
2016-May-19 20:26N 31°05' E 122°03'1314.5
2016-May-19 19:33N 31°11' E 121°50'1413.9
2016-May-19 18:33N 31°21' E 121°39'1010.4
2016-May-19 17:33N 31°27' E 121°28'1211.6
2016-May-19 16:34N 31°34' E 121°18'1111.2
2016-May-19 15:33N 31°42' E 121°08'1411.4
2016-May-19 14:20N 31°49' E 120°55'1213.6
2016-May-19 13:28N 32°00' E 120°49'1412.8
2016-May-19 12:24N 32°01' E 120°32'1010.9
2016-May-19 11:31N 31°59' E 120°21'1413.4
2016-May-19 10:29N 31°57' E 120°05'6 0.3
2016-May-18 12:27N 32°00' E 119°59'2 0.5
2016-May-18 08:28N 32°02' E 119°57'  
2016-May-15 10:06N 32°01' E 119°58'0 0.0
2016-May-15 09:24N 32°01' E 119°58'0 0.0
2016-May-15 03:19N 32°01' E 119°58'0 0.0
2016-May-14 15:22N 32°01' E 119°58'0 0.0
2016-May-13 07:21N 32°01' E 119°58'0 0.0
2016-May-13 02:18N 32°01' E 119°58'0 0.0
2016-May-13 00:24N 32°01' E 119°58'0 0.0
2016-May-12 21:29N 32°01' E 119°58'0 0.0
2016-May-12 18:30N 32°01' E 119°58'0 0.0
2016-May-12 10:24N 32°01' E 119°58'0 0.0
2016-May-12 09:22N 32°01' E 119°58'0 0.1
2016-May-12 08:06N 32°01' E 119°58'3 5.6
2016-May-12 07:33N 31°59' E 120°00'7 6.9
2016-May-12 06:30N 31°56' E 120°08'8 7.8
2016-May-12 05:30N 31°57' E 120°17'9 8.2
2016-May-12 04:24N 32°03' E 120°26'9 7.7
2016-May-12 03:15N 32°01' E 120°36'6 8.1
2016-May-12 02:31N 32°00' E 120°43'8 8.4
2016-May-12 01:31N 31°57' E 120°52'17 8.8
2016-May-11 23:33N 31°45' E 121°06'1110.9
2016-May-11 22:33N 31°38' E 121°16'6 5.3
2016-May-11 21:31N 31°34' E 121°20'0 0.0
2016-May-11 20:31N 31°34' E 121°20'0 0.0
2016-May-11 19:31N 31°34' E 121°20'0 0.0
2016-May-11 18:31N 31°34' E 121°20'0 0.1
2016-May-11 17:31N 31°33' E 121°20'0 0.1
2016-May-11 16:30N 31°33' E 121°20'0 0.1
2016-May-11 15:33N 31°33' E 121°20'0 0.1
2016-May-11 14:33N 31°33' E 121°20'0 0.1
2016-May-11 13:33N 31°33' E 121°20'0 0.1
2016-May-11 12:32N 31°34' E 121°20'0 0.0
2016-May-11 11:33N 31°34' E 121°20'0 0.2
2016-May-11 10:31N 31°34' E 121°20'0 0.0
2016-May-11 09:31N 31°34' E 121°20'6 6.0
2016-May-11 08:33N 31°30' E 121°25'9 8.5
2016-May-11 07:33N 31°24' E 121°33'10 9.9
2016-May-11 06:33N 31°19' E 121°43'1110.7
2016-May-11 05:33N 31°11' E 121°51'  

Dump ship's entire track history